createdAt,value
2017-09-28T00:00:22.853Z,0
2017-09-28T00:01:23.241Z,0
2017-09-28T00:02:22.583Z,0
2017-09-28T00:03:23.236Z,0
2017-09-28T00:04:23.261Z,0
2017-09-28T00:05:23.287Z,0
2017-09-28T00:06:22.985Z,0
2017-09-28T00:07:23.041Z,0
2017-09-28T00:09:23.050Z,0
2017-09-28T00:10:23.391Z,0
2017-09-28T00:11:39.008Z,0
2017-09-28T00:12:23.437Z,0
2017-09-28T00:13:38.048Z,0
2017-09-28T00:14:23.167Z,0
2017-09-28T00:15:38.092Z,0
2017-09-28T00:16:23.521Z,0
2017-09-28T00:17:23.235Z,0
2017-09-28T00:18:38.162Z,0
2017-09-28T00:19:23.592Z,0
2017-09-28T00:20:23.616Z,0
2017-09-28T00:21:23.638Z,0
2017-09-28T00:22:23.658Z,0
2017-09-28T00:23:23.683Z,0
2017-09-28T00:24:23.705Z,0
2017-09-28T00:25:38.001Z,0
2017-09-28T00:26:23.430Z,0
2017-09-28T00:27:38.358Z,0
2017-09-28T00:28:23.800Z,0
2017-09-28T00:29:23.869Z,0
2017-09-28T00:30:38.116Z,0
2017-09-28T00:31:38.451Z,0
2017-09-28T00:32:38.479Z,0
2017-09-28T00:33:23.583Z,0
2017-09-28T00:34:23.651Z,0
2017-09-28T00:35:23.951Z,0
2017-09-28T00:36:23.977Z,0
2017-09-28T00:37:23.992Z,0
2017-09-28T00:38:23.690Z,0
2017-09-28T00:39:38.667Z,0
2017-09-28T00:40:24.058Z,0
2017-09-28T00:42:24.098Z,0
2017-09-28T00:43:38.728Z,0
2017-09-28T00:44:23.824Z,0
2017-09-28T00:45:24.166Z,0
2017-09-28T00:46:38.462Z,0
2017-09-28T00:47:24.215Z,0
2017-09-28T00:48:38.508Z,0
2017-09-28T00:49:24.264Z,0
2017-09-28T00:50:24.289Z,0
2017-09-28T00:51:23.989Z,0
2017-09-28T00:52:24.321Z,0
2017-09-28T00:53:24.345Z,0
2017-09-28T00:54:38.956Z,0
2017-09-28T00:55:24.390Z,0
2017-09-28T00:56:24.406Z,0
2017-09-28T00:57:24.434Z,0
2017-09-28T00:58:24.140Z,0
2017-09-28T00:59:39.070Z,0
2017-09-28T01:00:24.498Z,0
2017-09-28T01:01:39.110Z,0
2017-09-28T01:02:24.548Z,0
2017-09-28T01:03:24.246Z,0
2017-09-28T01:05:23.972Z,0
2017-09-28T01:06:23.679Z,0
2017-09-28T01:07:24.339Z,0
2017-09-28T01:08:24.679Z,0
2017-09-28T01:09:24.703Z,0
2017-09-28T01:10:24.722Z,0
2017-09-28T01:11:39.346Z,0
2017-09-28T01:12:24.768Z,0
2017-09-28T01:13:24.788Z,0
2017-09-28T01:14:39.408Z,0
2017-09-28T01:15:39.428Z,0
2017-09-28T01:16:39.450Z,0
2017-09-28T01:17:24.557Z,0
2017-09-28T01:18:24.900Z,0
2017-09-28T01:19:24.925Z,0
2017-09-28T01:20:39.532Z,0
2017-09-28T01:21:24.967Z,0
2017-09-28T01:22:24.667Z,0
2017-09-28T01:23:25.007Z,0
2017-09-28T01:25:25.055Z,0
2017-09-28T01:26:24.760Z,0
2017-09-28T01:27:25.102Z,0
2017-09-28T01:28:25.120Z,0
2017-09-28T01:29:25.135Z,0
2017-09-28T01:30:25.164Z,0
2017-09-28T01:31:39.776Z,0
2017-09-28T01:32:25.208Z,0
2017-09-28T01:33:54.420Z,0
2017-09-28T01:34:24.972Z,0
2017-09-28T01:35:25.274Z,0
2017-09-28T01:36:24.977Z,0
2017-09-28T01:38:25.019Z,0
2017-09-28T01:39:25.370Z,0
2017-09-28T01:40:25.383Z,0
2017-09-28T01:41:25.406Z,0
2017-09-28T01:42:25.447Z,0
2017-09-28T01:43:40.048Z,0
2017-09-28T01:44:40.071Z,0
2017-09-28T01:45:25.175Z,0
2017-09-28T01:46:41.107Z,0
2017-09-28T01:47:25.539Z,0
2017-09-28T01:48:25.243Z,0
2017-09-28T01:49:40.176Z,0
2017-09-28T01:50:39.877Z,0
2017-09-28T01:51:25.627Z,0
2017-09-28T01:52:25.327Z,0
2017-09-28T01:53:25.672Z,0
2017-09-28T01:54:40.288Z,0
2017-09-28T01:55:25.746Z,0
2017-09-28T01:56:25.742Z,0
2017-09-28T01:57:25.762Z,0
2017-09-28T01:58:25.461Z,0
2017-09-28T01:59:25.484Z,0
2017-09-28T02:00:25.840Z,0
2017-09-28T02:01:25.842Z,0
2017-09-28T02:02:40.461Z,0
2017-09-28T02:03:25.893Z,0
2017-09-28T02:04:25.918Z,0
2017-09-28T02:05:40.527Z,0
2017-09-28T02:06:40.548Z,0
2017-09-28T02:07:40.570Z,0
2017-09-28T02:08:26.009Z,0
2017-09-28T02:09:27.029Z,0
2017-09-28T02:10:25.089Z,0
2017-09-28T02:11:25.749Z,0
2017-09-28T02:12:26.087Z,0
2017-09-28T02:13:26.116Z,0
2017-09-28T02:14:25.818Z,0
2017-09-28T02:15:26.157Z,0
2017-09-28T02:16:25.857Z,0
2017-09-28T02:17:26.202Z,0
2017-09-28T02:18:40.817Z,0
2017-09-28T02:19:26.246Z,0
2017-09-28T02:20:26.273Z,0
2017-09-28T02:21:25.972Z,0
2017-09-28T02:22:40.905Z,0
2017-09-28T02:23:40.926Z,0
2017-09-28T02:24:26.043Z,0
2017-09-28T02:25:40.975Z,0
2017-09-28T02:26:26.398Z,0
2017-09-28T02:27:26.419Z,0
2017-09-28T02:28:25.805Z,0
2017-09-28T02:29:26.147Z,0
2017-09-28T02:30:26.489Z,0
2017-09-28T02:31:26.189Z,0
2017-09-28T02:32:26.533Z,0
2017-09-28T02:34:41.170Z,0
2017-09-28T02:35:26.589Z,0
2017-09-28T02:36:26.621Z,0
2017-09-28T02:37:41.235Z,0
2017-09-28T02:38:40.937Z,0
2017-09-28T02:39:26.681Z,0
2017-09-28T02:40:41.295Z,0
2017-09-28T02:41:26.725Z,0
2017-09-28T02:42:26.757Z,0
2017-09-28T02:43:26.783Z,0
2017-09-28T02:44:26.822Z,0
2017-09-28T02:45:26.497Z,0
2017-09-28T02:46:26.836Z,0
2017-09-28T02:47:26.862Z,0
2017-09-28T02:48:26.883Z,0
2017-09-28T02:49:41.492Z,0
2017-09-28T02:50:26.929Z,0
2017-09-28T02:52:26.651Z,0
2017-09-28T02:53:26.993Z,0
2017-09-28T02:54:41.616Z,0
2017-09-28T02:56:27.062Z,0
2017-09-28T02:57:27.079Z,0
2017-09-28T02:58:27.099Z,0
2017-09-28T02:59:27.123Z,0
2017-09-28T03:00:27.146Z,0
2017-09-28T03:01:27.168Z,0
2017-09-28T03:02:27.191Z,0
2017-09-28T03:03:27.210Z,0
2017-09-28T03:04:27.231Z,0
2017-09-28T03:05:41.849Z,0
2017-09-28T03:06:27.283Z,0
2017-09-28T03:07:41.891Z,0
2017-09-28T03:08:26.999Z,0
2017-09-28T03:09:41.930Z,0
2017-09-28T03:10:27.369Z,0
2017-09-28T03:11:27.385Z,0
2017-09-28T03:12:27.406Z,0
2017-09-28T03:13:27.433Z,0
2017-09-28T03:14:27.455Z,0
2017-09-28T03:15:27.485Z,0
2017-09-28T03:17:27.512Z,0
2017-09-28T03:18:27.544Z,0
2017-09-28T03:19:27.249Z,0
2017-09-28T03:21:42.196Z,0
2017-09-28T03:22:42.226Z,0
2017-09-28T03:23:27.648Z,0
2017-09-28T03:24:41.943Z,0
2017-09-28T03:25:41.963Z,0
2017-09-28T03:26:42.303Z,0
2017-09-28T03:27:27.416Z,0
2017-09-28T03:28:27.763Z,0
2017-09-28T03:29:27.777Z,0
2017-09-28T03:30:27.820Z,0
2017-09-28T03:31:27.507Z,0
2017-09-28T03:32:27.847Z,0
2017-09-28T03:33:27.552Z,0
2017-09-28T03:34:27.569Z,0
2017-09-28T03:36:27.614Z,0
2017-09-28T03:37:42.586Z,0
2017-09-28T03:38:27.332Z,0
2017-09-28T03:39:42.268Z,0
2017-09-28T03:40:28.024Z,0
2017-09-28T03:41:42.629Z,0
2017-09-28T03:42:28.061Z,0
2017-09-28T03:43:28.081Z,0
2017-09-28T03:44:28.106Z,0
2017-09-28T03:45:28.127Z,0
2017-09-28T03:46:28.146Z,0
2017-09-28T03:47:27.852Z,0
2017-09-28T03:48:28.193Z,0
2017-09-28T03:49:28.216Z,0
2017-09-28T03:50:27.918Z,0
2017-09-28T03:51:28.261Z,0
2017-09-28T03:52:28.291Z,0
2017-09-28T03:53:42.897Z,0
2017-09-28T03:55:28.349Z,0
2017-09-28T03:56:28.370Z,0
2017-09-28T03:57:28.385Z,0
2017-09-28T03:58:27.778Z,0
2017-09-28T03:59:42.703Z,0
2017-09-28T04:00:28.460Z,0
2017-09-28T04:01:28.159Z,0
2017-09-28T04:02:28.501Z,0
2017-09-28T04:03:28.522Z,0
2017-09-28T04:04:28.542Z,0
2017-09-28T04:05:28.569Z,0
2017-09-28T04:06:28.582Z,0
2017-09-28T04:07:28.610Z,0
2017-09-28T04:08:28.629Z,0
2017-09-28T04:09:42.920Z,0
2017-09-28T04:10:28.352Z,0
2017-09-28T04:12:28.395Z,0
2017-09-28T04:13:28.732Z,0
2017-09-28T04:14:28.764Z,0
2017-09-28T04:15:28.460Z,0
2017-09-28T04:16:43.389Z,0
2017-09-28T04:17:28.509Z,0
2017-09-28T04:18:43.432Z,0
2017-09-28T04:19:28.548Z,0
2017-09-28T04:20:28.899Z,0
2017-09-28T04:21:28.271Z,0
2017-09-28T04:22:28.929Z,0
2017-09-28T04:23:28.628Z,0
2017-09-28T04:24:43.568Z,0
2017-09-28T04:25:28.676Z,0
2017-09-28T04:27:28.724Z,0
2017-09-28T04:28:29.065Z,0
2017-09-28T04:29:28.763Z,0
2017-09-28T04:30:29.104Z,0
2017-09-28T04:31:29.173Z,0
2017-09-28T04:32:29.145Z,0
2017-09-28T04:33:43.762Z,0
2017-09-28T04:35:43.811Z,0
2017-09-28T04:36:29.292Z,0
2017-09-28T04:37:28.937Z,0
2017-09-28T04:39:28.984Z,0
2017-09-28T04:40:29.003Z,0
2017-09-28T04:41:43.935Z,0
2017-09-28T04:42:29.360Z,0
2017-09-28T04:43:29.070Z,0
2017-09-28T04:44:29.413Z,0
2017-09-28T04:45:28.794Z,0
2017-09-28T04:46:29.131Z,0
2017-09-28T04:47:29.471Z,0
2017-09-28T04:48:44.083Z,0
2017-09-28T04:49:29.522Z,0
2017-09-28T04:50:29.219Z,0
2017-09-28T04:51:29.244Z,0
2017-09-28T04:52:28.937Z,0
2017-09-28T04:53:29.283Z,0
2017-09-28T04:54:28.984Z,0
2017-09-28T04:55:29.323Z,0
2017-09-28T04:56:43.933Z,0
2017-09-28T04:57:29.368Z,0
2017-09-28T04:58:29.404Z,0
2017-09-28T04:59:29.413Z,0
2017-09-28T05:01:29.133Z,0
2017-09-28T05:02:44.382Z,0
2017-09-28T05:03:29.179Z,0
2017-09-28T05:04:44.108Z,0
2017-09-28T05:06:29.882Z,0
2017-09-28T05:07:29.911Z,0
2017-09-28T05:08:29.923Z,0
2017-09-28T05:09:28.989Z,0
2017-09-28T05:10:29.658Z,5
2017-09-28T05:11:29.982Z,5
2017-09-28T05:12:44.282Z,5
2017-09-28T05:14:30.055Z,5
2017-09-28T05:16:30.100Z,5
2017-09-28T05:17:44.389Z,5
2017-09-28T05:18:44.756Z,5
2017-09-28T05:19:29.526Z,5
2017-09-28T05:20:30.183Z,10
2017-09-28T05:21:30.209Z,10
2017-09-28T05:22:29.900Z,10
2017-09-28T05:23:30.249Z,10
2017-09-28T05:24:44.868Z,10
2017-09-28T05:25:30.286Z,10
2017-09-28T05:26:30.309Z,10
2017-09-28T05:27:30.327Z,15
2017-09-28T05:28:44.943Z,15
2017-09-28T05:29:30.375Z,15
2017-09-28T05:30:44.667Z,15
2017-09-28T05:31:45.056Z,15
2017-09-28T05:33:30.458Z,20
2017-09-28T05:34:30.481Z,20
2017-09-28T05:35:29.860Z,25
2017-09-28T05:36:30.532Z,25
2017-09-28T05:37:30.602Z,25
2017-09-28T05:38:30.564Z,25
2017-09-28T05:40:30.608Z,30
2017-09-28T05:41:30.636Z,30
2017-09-28T05:42:30.652Z,35
2017-09-28T05:43:30.667Z,35
2017-09-28T05:44:44.970Z,35
2017-09-28T05:45:30.720Z,35
2017-09-28T05:46:45.377Z,40
2017-09-28T05:47:30.769Z,40
2017-09-28T05:48:45.055Z,40
2017-09-28T05:49:30.806Z,40
2017-09-28T05:50:30.832Z,40
2017-09-28T05:51:30.848Z,45
2017-09-28T05:52:30.873Z,45
2017-09-28T05:53:30.881Z,45
2017-09-28T05:54:30.906Z,45
2017-09-28T05:55:30.927Z,45
2017-09-28T05:56:30.636Z,45
2017-09-28T05:59:45.292Z,45
2017-09-28T06:01:31.058Z,45
2017-09-28T06:02:30.764Z,45
2017-09-28T06:03:30.834Z,45
2017-09-28T06:04:45.397Z,45
2017-09-28T06:05:30.828Z,45
2017-09-28T06:06:31.168Z,45
2017-09-28T06:07:45.795Z,45
2017-09-28T06:08:30.897Z,50
2017-09-28T06:09:31.229Z,50
2017-09-28T06:10:31.251Z,55
2017-09-28T06:12:31.301Z,55
2017-09-28T06:13:31.001Z,55
2017-09-28T06:14:31.023Z,55
2017-09-28T06:15:31.045Z,65
2017-09-28T06:16:31.396Z,80
2017-09-28T06:17:31.124Z,140
2017-09-28T06:18:46.019Z,200
2017-09-28T06:19:31.485Z,85
2017-09-28T06:20:31.157Z,75
2017-09-28T06:21:31.499Z,65
2017-09-28T06:23:46.126Z,65
2017-09-28T06:24:31.558Z,65
2017-09-28T06:25:31.590Z,70
2017-09-28T06:26:31.612Z,70
2017-09-28T06:27:31.304Z,75
2017-09-28T06:28:31.647Z,75
2017-09-28T06:29:31.343Z,80
2017-09-28T06:30:31.704Z,80
2017-09-28T06:31:46.301Z,85
2017-09-28T06:32:31.733Z,80
2017-09-28T06:33:46.022Z,80
2017-09-28T06:34:46.367Z,75
2017-09-28T06:35:46.386Z,75
2017-09-28T06:36:31.179Z,75
2017-09-28T06:37:31.203Z,75
2017-09-28T06:38:31.225Z,80
2017-09-28T06:40:31.902Z,80
2017-09-28T06:41:31.610Z,80
2017-09-28T06:42:31.951Z,80
2017-09-28T06:43:31.966Z,80
2017-09-28T06:44:31.673Z,85
2017-09-28T06:45:32.013Z,85
2017-09-28T06:46:32.043Z,85
2017-09-28T06:47:46.656Z,90
2017-09-28T06:48:31.757Z,90
2017-09-28T06:49:32.102Z,90
2017-09-28T06:50:46.714Z,95
2017-09-28T06:51:32.151Z,95
2017-09-28T06:52:46.759Z,95
2017-09-28T06:53:32.184Z,100
2017-09-28T06:54:32.210Z,95
2017-09-28T06:55:32.233Z,95
2017-09-28T06:56:32.254Z,95
2017-09-28T06:57:31.954Z,95
2017-09-28T06:59:31.997Z,95
2017-09-28T07:00:32.347Z,135
2017-09-28T07:02:32.397Z,240
2017-09-28T07:04:01.603Z,175
2017-09-28T07:04:32.431Z,505
2017-09-28T07:05:32.463Z,635
2017-09-28T07:06:46.425Z,625
2017-09-28T07:07:32.498Z,680
2017-09-28T07:08:32.515Z,695
2017-09-28T07:09:32.546Z,690
2017-09-28T07:10:47.154Z,710
2017-09-28T07:11:32.274Z,705
2017-09-28T07:13:32.629Z,690
2017-09-28T07:14:32.339Z,730
2017-09-28T07:15:32.682Z,695
2017-09-28T07:16:32.705Z,745
2017-09-28T07:17:32.728Z,725
2017-09-28T07:19:47.053Z,395
2017-09-28T07:20:32.487Z,325
2017-09-28T07:21:32.833Z,320
2017-09-28T07:22:32.888Z,325
2017-09-28T07:23:32.244Z,330
2017-09-28T07:24:32.902Z,330
2017-09-28T07:26:32.949Z,345
2017-09-28T07:27:32.664Z,350
2017-09-28T07:28:32.685Z,355
2017-09-28T07:30:32.733Z,365
2017-09-28T07:31:32.768Z,355
2017-09-28T07:32:32.787Z,350
2017-09-28T07:33:32.176Z,345
2017-09-28T07:34:47.757Z,345
2017-09-28T07:35:32.870Z,340
2017-09-28T07:36:32.890Z,340
2017-09-28T07:37:47.510Z,330
2017-09-28T07:38:47.852Z,330
2017-09-28T07:39:33.287Z,325
2017-09-28T07:40:33.318Z,325
2017-09-28T07:41:33.340Z,320
2017-09-28T07:42:33.368Z,320
2017-09-28T07:43:33.390Z,320
2017-09-28T07:44:33.107Z,320
2017-09-28T07:46:33.468Z,320
2017-09-28T07:47:33.494Z,320
2017-09-28T07:48:33.524Z,320
2017-09-28T07:50:33.578Z,310
2017-09-28T07:51:48.203Z,325
2017-09-28T07:52:47.904Z,305
2017-09-28T07:53:33.336Z,270
2017-09-28T07:54:33.376Z,225
2017-09-28T07:55:33.395Z,230
2017-09-28T07:56:48.335Z,280
2017-09-28T07:57:33.121Z,305
2017-09-28T07:58:33.788Z,315
2017-09-28T07:59:33.503Z,315
2017-09-28T08:00:33.528Z,315
2017-09-28T08:01:33.554Z,320
2017-09-28T08:02:33.570Z,330
2017-09-28T08:04:33.942Z,315
2017-09-28T08:05:33.970Z,335
2017-09-28T08:06:48.268Z,325
2017-09-28T08:07:33.383Z,340
2017-09-28T08:08:34.047Z,285
2017-09-28T08:10:34.100Z,240
2017-09-28T08:11:34.127Z,230
2017-09-28T08:12:33.833Z,220
2017-09-28T08:13:33.862Z,215
2017-09-28T08:14:34.208Z,205
2017-09-28T08:15:34.237Z,200
2017-09-28T08:16:34.258Z,195
2017-09-28T08:17:34.280Z,195
2017-09-28T08:18:34.008Z,190
2017-09-28T08:20:34.355Z,195
2017-09-28T08:21:33.749Z,205
2017-09-28T08:22:48.678Z,235
2017-09-28T08:23:34.436Z,245
2017-09-28T08:24:34.455Z,340
2017-09-28T08:25:48.755Z,365
2017-09-28T08:27:34.220Z,375
2017-09-28T08:28:34.562Z,380
2017-09-28T08:29:33.942Z,380
2017-09-28T08:30:34.608Z,295
2017-09-28T08:31:34.629Z,355
2017-09-28T08:32:34.672Z,365
2017-09-28T08:33:34.370Z,365
2017-09-28T08:34:34.069Z,360
2017-09-28T08:35:34.097Z,355
2017-09-28T08:36:34.758Z,350
2017-09-28T08:37:34.781Z,350
2017-09-28T08:38:49.088Z,335
2017-09-28T08:39:34.200Z,335
2017-09-28T08:40:34.550Z,310
2017-09-28T08:41:49.484Z,295
2017-09-28T08:43:34.942Z,335
2017-09-28T08:44:49.555Z,345
2017-09-28T08:45:34.671Z,340
2017-09-28T08:46:35.019Z,305
2017-09-28T08:47:34.403Z,340
2017-09-28T08:48:34.747Z,335
2017-09-28T08:49:34.784Z,345
2017-09-28T08:50:34.798Z,350
2017-09-28T08:51:34.825Z,355
2017-09-28T08:52:35.183Z,365
2017-09-28T08:53:35.194Z,370
2017-09-28T08:54:49.496Z,375
2017-09-28T08:55:34.667Z,375
2017-09-28T08:56:35.285Z,380
2017-09-28T08:57:34.977Z,385
2017-09-28T08:58:49.602Z,385
2017-09-28T08:59:35.043Z,390
2017-09-28T09:00:35.384Z,390
2017-09-28T09:01:49.680Z,390
2017-09-28T09:02:34.796Z,390
2017-09-28T09:03:35.149Z,395
2017-09-28T09:04:35.490Z,395
2017-09-28T09:05:35.226Z,405
2017-09-28T09:06:35.538Z,410
2017-09-28T09:07:34.923Z,405
2017-09-28T09:08:34.955Z,400
2017-09-28T09:09:49.894Z,395
2017-09-28T09:10:50.241Z,390
2017-09-28T09:11:35.669Z,390
2017-09-28T09:13:35.407Z,390
2017-09-28T09:14:50.025Z,390
2017-09-28T09:15:50.052Z,390
2017-09-28T09:16:35.806Z,385
2017-09-28T09:17:35.880Z,385
2017-09-28T09:18:35.857Z,380
2017-09-28T09:19:35.564Z,380
2017-09-28T09:20:35.911Z,375
2017-09-28T09:21:35.937Z,370
2017-09-28T09:22:35.963Z,360
2017-09-28T09:23:35.984Z,350
2017-09-28T09:24:35.705Z,345
2017-09-28T09:25:35.722Z,335
2017-09-28T09:27:35.456Z,320
2017-09-28T09:28:50.446Z,300
2017-09-28T09:29:50.419Z,280
2017-09-28T09:30:35.862Z,270
2017-09-28T09:31:36.207Z,265
2017-09-28T09:32:50.177Z,255
2017-09-28T09:33:36.254Z,255
2017-09-28T09:34:35.964Z,255
2017-09-28T09:35:35.999Z,255
2017-09-28T09:36:36.332Z,255
2017-09-28T09:37:36.038Z,250
2017-09-28T09:38:36.068Z,250
2017-09-28T09:39:36.090Z,250
2017-09-28T09:40:36.119Z,250
2017-09-28T09:41:50.735Z,250
2017-09-28T09:42:36.175Z,245
2017-09-28T09:43:36.515Z,245
2017-09-28T09:44:36.540Z,245
2017-09-28T09:47:36.303Z,245
2017-09-28T09:48:36.650Z,245
2017-09-28T09:49:36.672Z,245
2017-09-28T09:50:51.294Z,245
2017-09-28T09:51:36.733Z,245
2017-09-28T09:52:36.752Z,245
2017-09-28T09:53:36.778Z,245
2017-09-28T09:54:51.455Z,250
2017-09-28T09:56:51.462Z,245
2017-09-28T09:57:51.473Z,245
2017-09-28T09:58:36.913Z,240
2017-09-28T09:59:51.532Z,240
2017-09-28T10:00:36.970Z,240
2017-09-28T10:01:36.987Z,240
2017-09-28T10:02:36.697Z,240
2017-09-28T10:03:37.045Z,240
2017-09-28T10:04:37.083Z,240
2017-09-28T10:05:36.776Z,235
2017-09-28T10:06:51.392Z,235
2017-09-28T10:07:37.155Z,235
2017-09-28T10:08:36.854Z,235
2017-09-28T10:09:37.193Z,230
2017-09-28T10:11:51.852Z,225
2017-09-28T10:12:51.871Z,220
2017-09-28T10:14:21.080Z,215
2017-09-28T10:14:37.334Z,215
2017-09-28T10:15:37.040Z,215
2017-09-28T10:16:36.745Z,215
2017-09-28T10:18:52.033Z,210
2017-09-28T10:19:52.053Z,210
2017-09-28T10:20:37.166Z,210
2017-09-28T10:21:37.197Z,205
2017-09-28T10:22:36.899Z,205
2017-09-28T10:23:37.248Z,205
2017-09-28T10:24:37.602Z,200
2017-09-28T10:25:36.974Z,200
2017-09-28T10:26:37.320Z,195
2017-09-28T10:27:36.709Z,195
2017-09-28T10:28:37.383Z,190
2017-09-28T10:29:52.314Z,190
2017-09-28T10:30:52.334Z,185
2017-09-28T10:31:37.768Z,185
2017-09-28T10:32:52.064Z,180
2017-09-28T10:33:37.818Z,180
2017-09-28T10:34:37.524Z,175
2017-09-28T10:35:37.872Z,175
2017-09-28T10:36:37.573Z,150
2017-09-28T10:37:37.596Z,155
2017-09-28T10:38:37.632Z,165
2017-09-28T10:39:37.969Z,165
2017-09-28T10:40:38.069Z,165
2017-09-28T10:41:37.386Z,165
2017-09-28T10:42:37.721Z,160
2017-09-28T10:43:38.079Z,155
2017-09-28T10:44:52.686Z,135
2017-09-28T10:45:37.847Z,150
2017-09-28T10:46:38.146Z,150
2017-09-28T10:47:37.846Z,145
2017-09-28T10:48:52.789Z,145
2017-09-28T10:49:38.214Z,145
2017-09-28T10:50:37.931Z,145
2017-09-28T10:51:37.953Z,150
2017-09-28T10:52:37.653Z,150
2017-09-28T10:53:38.001Z,150
2017-09-28T10:54:38.026Z,145
2017-09-28T10:55:38.365Z,140
2017-09-28T10:56:38.392Z,140
2017-09-28T10:58:38.500Z,140
2017-09-28T10:59:38.148Z,135
2017-09-28T11:00:53.088Z,145
2017-09-28T11:01:38.513Z,150
2017-09-28T11:02:37.910Z,150
2017-09-28T11:03:53.189Z,150
2017-09-28T11:04:38.595Z,150
2017-09-28T11:05:53.206Z,155
2017-09-28T11:06:38.325Z,155
2017-09-28T11:07:38.696Z,150
2017-09-28T11:08:38.688Z,145
2017-09-28T11:09:38.724Z,140
2017-09-28T11:10:38.425Z,140
2017-09-28T11:11:38.129Z,140
2017-09-28T11:12:38.203Z,135
2017-09-28T11:13:38.505Z,135
2017-09-28T11:14:38.517Z,135
2017-09-28T11:15:38.230Z,135
2017-09-28T11:16:53.482Z,135
2017-09-28T11:17:53.507Z,135
2017-09-28T11:18:38.621Z,140
2017-09-28T11:20:38.994Z,135
2017-09-28T11:21:38.374Z,135
2017-09-28T11:22:39.033Z,130
2017-09-28T11:23:53.333Z,130
2017-09-28T11:24:53.358Z,130
2017-09-28T11:25:39.110Z,130
2017-09-28T11:26:39.134Z,145
2017-09-28T11:27:38.841Z,150
2017-09-28T11:28:39.215Z,155
2017-09-28T11:29:39.213Z,165
2017-09-28T11:30:53.831Z,175
2017-09-28T11:32:53.882Z,180
2017-09-28T11:33:53.907Z,180
2017-09-28T11:34:39.338Z,180
2017-09-28T11:35:39.035Z,180
2017-09-28T11:36:39.388Z,170
2017-09-28T11:37:53.683Z,160
2017-09-28T11:38:39.123Z,155
2017-09-28T11:39:39.461Z,155
2017-09-28T11:40:39.488Z,150
2017-09-28T11:41:39.508Z,150
2017-09-28T11:43:39.560Z,155
2017-09-28T11:44:39.615Z,155
2017-09-28T11:45:39.603Z,160
2017-09-28T11:46:39.365Z,165
2017-09-28T11:47:39.015Z,170
2017-09-28T11:48:54.286Z,160
2017-09-28T11:49:39.388Z,160
2017-09-28T11:50:39.435Z,165
2017-09-28T11:51:39.437Z,160
2017-09-28T11:54:54.105Z,145
2017-09-28T11:55:54.501Z,145
2017-09-28T11:56:39.568Z,145
2017-09-28T11:57:39.919Z,145
2017-09-28T11:58:39.296Z,140
2017-09-28T12:00:39.987Z,150
2017-09-28T12:01:40.006Z,155
2017-09-28T12:02:39.711Z,160
2017-09-28T12:05:54.386Z,190
2017-09-28T12:06:54.454Z,195
2017-09-28T12:07:40.152Z,195
2017-09-28T12:08:39.861Z,200
2017-09-28T12:09:39.888Z,205
2017-09-28T12:10:39.912Z,210
2017-09-28T12:11:40.251Z,210
2017-09-28T12:12:39.974Z,210
2017-09-28T12:13:39.987Z,210
2017-09-28T12:14:40.342Z,210
2017-09-28T12:15:54.955Z,210
2017-09-28T12:16:40.381Z,210
2017-09-28T12:18:41.427Z,195
2017-09-28T12:19:55.044Z,190
2017-09-28T12:21:40.193Z,175
2017-09-28T12:22:40.211Z,175
2017-09-28T12:23:40.559Z,175
2017-09-28T12:24:40.265Z,175
2017-09-28T12:26:40.633Z,175
2017-09-28T12:27:40.017Z,170
2017-09-28T12:28:40.731Z,170
2017-09-28T12:29:40.387Z,180
2017-09-28T12:30:40.419Z,180
2017-09-28T12:31:40.758Z,185
2017-09-28T12:33:40.816Z,195
2017-09-28T12:34:40.511Z,190
2017-09-28T12:36:40.564Z,175
2017-09-28T12:37:40.587Z,170
2017-09-28T12:38:40.615Z,175
2017-09-28T12:39:55.556Z,170
2017-09-28T12:40:40.986Z,170
2017-09-28T12:41:55.280Z,170
2017-09-28T12:42:40.725Z,175
2017-09-28T12:43:55.334Z,170
2017-09-28T12:44:41.101Z,170
2017-09-28T12:45:41.112Z,165
2017-09-28T12:46:40.496Z,165
2017-09-28T12:48:40.550Z,175
2017-09-28T12:49:40.906Z,170
2017-09-28T12:50:55.512Z,165
2017-09-28T12:51:55.850Z,155
2017-09-28T12:52:41.284Z,150
2017-09-28T12:54:41.016Z,140
2017-09-28T12:56:10.599Z,140
2017-09-28T12:56:41.079Z,145
2017-09-28T12:57:41.097Z,145
2017-09-28T12:58:55.711Z,145
2017-09-28T12:59:40.826Z,145
2017-09-28T13:00:41.493Z,145
2017-09-28T13:01:41.514Z,145
2017-09-28T13:02:41.223Z,150
2017-09-28T13:03:41.568Z,145
2017-09-28T13:04:56.186Z,140
2017-09-28T13:05:40.975Z,140
2017-09-28T13:06:41.333Z,140
2017-09-28T13:07:55.935Z,145
2017-09-28T13:08:41.370Z,150
2017-09-28T13:09:56.306Z,150
2017-09-28T13:10:41.419Z,155
2017-09-28T13:11:41.123Z,150
2017-09-28T13:12:41.472Z,150
2017-09-28T13:13:41.813Z,150
2017-09-28T13:14:41.846Z,160
2017-09-28T13:15:41.863Z,140
2017-09-28T13:16:41.578Z,130
2017-09-28T13:17:41.945Z,125
2017-09-28T13:18:41.617Z,130
2017-09-28T13:19:41.974Z,135
2017-09-28T13:20:41.404Z,150
2017-09-28T13:21:56.611Z,145
2017-09-28T13:22:42.037Z,145
2017-09-28T13:23:56.655Z,140
2017-09-28T13:24:42.115Z,135
2017-09-28T13:25:56.710Z,140
2017-09-28T13:26:42.147Z,135
2017-09-28T13:27:42.190Z,130
2017-09-28T13:28:42.197Z,125
2017-09-28T13:29:42.212Z,125
2017-09-28T13:30:41.922Z,125
2017-09-28T13:31:42.264Z,130
2017-09-28T13:32:42.288Z,130
2017-09-28T13:34:41.704Z,125
2017-09-28T13:35:42.044Z,120
2017-09-28T13:36:42.386Z,115
2017-09-28T13:37:42.476Z,110
2017-09-28T13:38:42.446Z,110
2017-09-28T13:39:57.062Z,110
2017-09-28T13:40:42.168Z,105
2017-09-28T13:41:42.529Z,105
2017-09-28T13:42:42.218Z,105
2017-09-28T13:43:56.843Z,100
2017-09-28T13:44:57.200Z,95
2017-09-28T13:45:42.623Z,95
2017-09-28T13:46:42.647Z,90
2017-09-28T13:47:42.348Z,90
2017-09-28T13:48:42.698Z,90
2017-09-28T13:50:42.425Z,90
2017-09-28T13:51:42.767Z,90
2017-09-28T13:52:42.476Z,85
2017-09-28T13:53:42.828Z,85
2017-09-28T13:55:42.554Z,85
2017-09-28T13:56:42.571Z,90
2017-09-28T13:57:42.927Z,85
2017-09-28T13:58:57.536Z,85
2017-09-28T13:59:42.969Z,85
2017-09-28T14:00:42.987Z,85
2017-09-28T14:01:57.610Z,90
2017-09-28T14:02:42.754Z,90
2017-09-28T14:03:43.086Z,90
2017-09-28T14:04:42.780Z,90
2017-09-28T14:05:42.475Z,90
2017-09-28T14:06:43.142Z,90
2017-09-28T14:08:42.868Z,95
2017-09-28T14:09:57.170Z,95
2017-09-28T14:10:57.197Z,95
2017-09-28T14:11:42.945Z,95
2017-09-28T14:12:42.980Z,95
2017-09-28T14:13:42.998Z,95
2017-09-28T14:14:43.339Z,95
2017-09-28T14:15:42.732Z,95
2017-09-28T14:16:43.132Z,95
2017-09-28T14:17:43.411Z,95
2017-09-28T14:18:43.118Z,95
2017-09-28T14:19:43.461Z,90
2017-09-28T14:20:43.169Z,90
2017-09-28T14:21:42.882Z,90
2017-09-28T14:22:42.578Z,90
2017-09-28T14:23:43.566Z,85
2017-09-28T14:24:42.949Z,85
2017-09-28T14:26:57.910Z,85
2017-09-28T14:27:43.348Z,80
2017-09-28T14:28:43.405Z,80
2017-09-28T14:29:58.303Z,80
2017-09-28T14:30:43.419Z,80
2017-09-28T14:31:43.761Z,80
2017-09-28T14:32:43.786Z,80
2017-09-28T14:33:43.816Z,80
2017-09-28T14:34:43.516Z,80
2017-09-28T14:35:43.865Z,80
2017-09-28T14:36:43.570Z,80
2017-09-28T14:37:43.267Z,80
2017-09-28T14:38:43.938Z,80
2017-09-28T14:39:43.649Z,80
2017-09-28T14:40:43.659Z,80
2017-09-28T14:41:43.724Z,80
2017-09-28T14:42:58.627Z,85
2017-09-28T14:43:58.333Z,80
2017-09-28T14:44:58.675Z,80
2017-09-28T14:45:43.466Z,85
2017-09-28T14:46:58.727Z,85
2017-09-28T14:47:43.837Z,90
2017-09-28T14:48:44.208Z,90
2017-09-28T14:49:43.891Z,90
2017-09-28T14:50:44.272Z,85
2017-09-28T14:51:44.265Z,85
2017-09-28T14:52:44.287Z,80
2017-09-28T14:53:43.667Z,80
2017-09-28T14:54:43.692Z,80
2017-09-28T14:56:44.062Z,80
2017-09-28T14:57:44.085Z,80
2017-09-28T14:58:59.022Z,80
2017-09-28T14:59:43.497Z,80
2017-09-28T15:00:59.070Z,80
2017-09-28T15:01:58.780Z,80
2017-09-28T15:02:43.576Z,80
2017-09-28T15:03:44.570Z,80
2017-09-28T15:04:44.260Z,80
2017-09-28T15:05:44.281Z,80
2017-09-28T15:06:44.622Z,80
2017-09-28T15:07:44.652Z,80
2017-09-28T15:08:44.677Z,80
2017-09-28T15:09:44.380Z,80
2017-09-28T15:10:44.087Z,80
2017-09-28T15:11:44.751Z,80
2017-09-28T15:13:44.802Z,80
2017-09-28T15:14:59.097Z,80
2017-09-28T15:15:44.530Z,80
2017-09-28T15:16:59.462Z,80
2017-09-28T15:17:59.486Z,75
2017-09-28T15:18:44.608Z,75
2017-09-28T15:19:59.535Z,70
2017-09-28T15:20:44.974Z,70
2017-09-28T15:21:44.680Z,70
2017-09-28T15:22:45.021Z,70
2017-09-28T15:23:44.403Z,65
2017-09-28T15:24:45.079Z,65